Relevés horaires Beauvechain (Belgique)


Relevés horaires à Beauvechain - Mardi 30 Juin 2020
Heure UTC1 Température [°C] Vent [km/h] Hum. [%] Pres.4 [hPa] Visi. [Km] Nébu. [octa] Préc.5 [mm] Cond.
2m. Res. Ros. Dir.2 Vit. Moy. Raf.3
23:00 16.7 16.7 15.5 SO 3.7 -- 9.3 93 1008.6(-0.4/3h) 20 -- -- --
22:00 16.7 16.7 15.4 SO 5.6 -- 16.7 92 1008.8(0.0/3h) 20 -- -- NA
21:00 17.1 17 15.1 SO 11.1 -- 22.2 88 1009.2(0.0/3h) 12 -- -- --
20:00 18.5 18.5 14.2 SO 7.4 -- 20.4 76 1009(0.0/3h) 20 -- -- --
19:00 18.4 18.4 14.1 SO 13.0 -- 22.2 76 1008.8(-0.3/3h) 20 -- -- --
18:00 18.7 18.7 13.3 SO 11.1 -- 24.1 71 1009(-0.1/3h) 20 -- -- --
17:00 19.4 19.4 13.0 SO 13.0 -- 24.1 66 1008.8(-0.7/3h) 20 -- -- --
16:00 19.7 19.7 12.2 SO 14.8 -- 24.1 62 1009.2(-0.8/3h) 20 -- -- --
15:00 20.3 20.3 12.3 SO 13.0 -- 22.2 60 1009.1(-1.2/3h) 20 7/8 -- --
14:00 19.2 19.2 11.7 SSO 9.3 -- 20.4 62 1009.7(-0.8/3h) 20 7/8 -- --
12:00 18.3 18.3 10.8 SO 13.0 -- 0.0 62 1010.5(-0.2/3h) 20 7/8 -- --
11:00 19.8 19.8 10.8 SO 13.0 -- 0.0 56 1010.6(-0.3/3h) 20 7/8 -- --
10:00 19.3 19.3 9.9 OSO 13.0 -- 0.0 54 1010.6(-0.2/3h) 20 7/8 -- --
08:00 16.6 16.4 9.0 SO 11.1 -- 0.0 61 1011.1(-0.2/3h) 20 7/8 -- --
07:00 15.7 15.3 9.5 SO 11.1 -- 0.0 67 1011.1(-0.4/3h) 20 7/8 -- --
06:00 14.0 13.3 9.6 SO 11.1 -- 0.0 75 1011.2(-0.2/3h) 20 5/8 -- --
05:00 12.6 12.6 8.6 NNO 0.0 -- 0.0 77 1011.6(-0.1/3h) 20 -- -- --
04:00 12.0 12.0 8.2 NNO 0.0 -- 0.0 78 1011.7(-0.2/3h) 20 -- -- --
03:00 11.2 11.2 8.0 NNO 0.0 -- 0.0 81 1011.6(-0.5/3h) 20 -- -- --
02:00 11.7 11.7 8.0 NNO 0.0 -- 0.0 78 1011.7(-0.7/3h) 20 -- -- --
01:00 12.5 12.5 7.7 NNO 0.0 -- 0.0 73 1011.8(-0.8/3h) 20 -- -- --
00:00 13.6 13.6 7.4 NNO 0.0 -- 0.0 66 1012.1(-0.7/3h) 20 -- -- --

1 Coordinated Universal Time. Actuellement il est 18:00 locale et 16:00 UTC.

2 Le vent souffle depuis la direction indiquée vers la direction oposée.

3 Les rafales max. sont disponible 40 min après l'heure du relevé.

4 Pour les stations d'altitude (plus de 600m) le géopotentiel du niveau le plus proche de la pression obligatoire est indiqué.

5 Les stations disposant d'un diffuseur peuvent indiquer "trace". Cela signifie que des précipitations ont touchés le sol mais que la quantité est inférieure à 0.1 mm.

Récapitulatif de la journée
Température [°C] Vent [km/h] Ensoleillement4 [h] Precipitations totale5 [mm] Pression [Hpa]
Min1 Max.2 Moy.3 Max. Min Max.
11.1 20.4 0 24.1 0 h 0 min 0 1008.6 1012.1

1 Température minimale relevée entre 18:00 UTC la veille et 18:00 UTC le jour donné.

2 Température maximale relevée entre 06:00 UTC le jour donné et 06:00 UTC le lendemain.

3 Vent moyen de la journée basé sur les relevés horaires.

4 Ensoleillement en heures relevé entre 06:00 UTC la veille et 06:00 UTC le jour donné.

5 Précipitations totales tombées entre 06:00 UTC la jour donné et 06:00 UTC le lendemain.

Graphiques horaires